sensor_id;sensor_type;location;lat;lon;timestamp;temperature;humidity
43671;DHT22;29267;50.906;7.248;2022-11-04T00:01:37;10.00;99.90
43671;DHT22;29267;50.906;7.248;2022-11-04T00:04:03;9.90;99.90
43671;DHT22;29267;50.906;7.248;2022-11-04T00:06:29;9.90;99.90
43671;DHT22;29267;50.906;7.248;2022-11-04T00:08:56;9.80;99.90
43671;DHT22;29267;50.906;7.248;2022-11-04T00:11:23;9.80;99.90
43671;DHT22;29267;50.906;7.248;2022-11-04T00:14:09;9.70;99.90
43671;DHT22;29267;50.906;7.248;2022-11-04T00:16:35;9.70;99.90
43671;DHT22;29267;50.906;7.248;2022-11-04T00:19:19;9.70;99.90
43671;DHT22;29267;50.906;7.248;2022-11-04T00:21:44;9.60;99.90
43671;DHT22;29267;50.906;7.248;2022-11-04T00:24:29;9.60;99.90
43671;DHT22;29267;50.906;7.248;2022-11-04T00:27:15;9.60;99.90
43671;DHT22;29267;50.906;7.248;2022-11-04T00:30:00;9.60;99.90
43671;DHT22;29267;50.906;7.248;2022-11-04T00:32:26;9.60;99.90
43671;DHT22;29267;50.906;7.248;2022-11-04T00:35:11;9.60;99.90
43671;DHT22;29267;50.906;7.248;2022-11-04T00:37:39;9.60;99.90
43671;DHT22;29267;50.906;7.248;2022-11-04T00:40:06;9.60;99.90
43671;DHT22;29267;50.906;7.248;2022-11-04T00:42:33;9.60;99.90
43671;DHT22;29267;50.906;7.248;2022-11-04T00:44:58;9.60;99.90
43671;DHT22;29267;50.906;7.248;2022-11-04T00:47:24;9.70;99.90
43671;DHT22;29267;50.906;7.248;2022-11-04T00:49:50;9.70;99.90
43671;DHT22;29267;50.906;7.248;2022-11-04T00:52:16;9.70;99.90
43671;DHT22;29267;50.906;7.248;2022-11-04T00:54:42;9.70;99.90
43671;DHT22;29267;50.906;7.248;2022-11-04T00:57:14;9.70;99.90
43671;DHT22;29267;50.906;7.248;2022-11-04T00:59:40;9.70;99.90
43671;DHT22;29267;50.906;7.248;2022-11-04T01:02:07;9.60;99.90
43671;DHT22;29267;50.906;7.248;2022-11-04T01:04:33;9.60;99.90
43671;DHT22;29267;50.906;7.248;2022-11-04T01:07:05;9.50;99.90
43671;DHT22;29267;50.906;7.248;2022-11-04T01:09:31;9.50;99.90
43671;DHT22;29267;50.906;7.248;2022-11-04T01:11:56;9.40;99.90
43671;DHT22;29267;50.906;7.248;2022-11-04T01:14:23;9.30;99.90
43671;DHT22;29267;50.906;7.248;2022-11-04T01:16:49;9.30;99.90
43671;DHT22;29267;50.906;7.248;2022-11-04T01:19:14;9.20;99.90
43671;DHT22;29267;50.906;7.248;2022-11-04T01:21:40;9.20;99.90
43671;DHT22;29267;50.906;7.248;2022-11-04T01:24:06;9.10;99.90
43671;DHT22;29267;50.906;7.248;2022-11-04T01:26:32;9.00;99.90
43671;DHT22;29267;50.906;7.248;2022-11-04T01:28:58;8.90;99.90
43671;DHT22;29267;50.906;7.248;2022-11-04T01:31:29;8.90;99.90
43671;DHT22;29267;50.906;7.248;2022-11-04T01:33:56;8.80;99.90
43671;DHT22;29267;50.906;7.248;2022-11-04T01:36:23;8.80;99.90
43671;DHT22;29267;50.906;7.248;2022-11-04T01:38:49;8.80;99.90
43671;DHT22;29267;50.906;7.248;2022-11-04T01:41:41;8.80;99.90
43671;DHT22;29267;50.906;7.248;2022-11-04T01:47:15;8.80;99.90
43671;DHT22;29267;50.906;7.248;2022-11-04T01:49:43;8.80;99.90
43671;DHT22;29267;50.906;7.248;2022-11-04T01:52:15;8.70;99.90
43671;DHT22;29267;50.906;7.248;2022-11-04T01:54:45;8.70;99.90
43671;DHT22;29267;50.906;7.248;2022-11-04T01:57:22;8.60;99.90
43671;DHT22;29267;50.906;7.248;2022-11-04T01:59:49;8.60;99.90
43671;DHT22;29267;50.906;7.248;2022-11-04T02:02:15;8.50;99.90
43671;DHT22;29267;50.906;7.248;2022-11-04T02:04:42;8.50;99.90
43671;DHT22;29267;50.906;7.248;2022-11-04T02:07:09;8.40;99.90
43671;DHT22;29267;50.906;7.248;2022-11-04T02:09:36;8.40;99.90
43671;DHT22;29267;50.906;7.248;2022-11-04T02:12:03;8.30;99.90
43671;DHT22;29267;50.906;7.248;2022-11-04T02:14:49;8.30;99.90
43671;DHT22;29267;50.906;7.248;2022-11-04T02:23:05;8.00;99.90
43671;DHT22;29267;50.906;7.248;2022-11-04T02:30:51;7.80;99.90
43671;DHT22;29267;50.906;7.248;2022-11-04T02:33:21;7.70;99.90
43671;DHT22;29267;50.906;7.248;2022-11-04T02:38:41;7.60;99.90
43671;DHT22;29267;50.906;7.248;2022-11-04T02:46:42;7.50;99.90
43671;DHT22;29267;50.906;7.248;2022-11-04T02:52:08;7.50;99.90
43671;DHT22;29267;50.906;7.248;2022-11-04T02:54:58;7.60;99.90
43671;DHT22;29267;50.906;7.248;2022-11-04T02:57:28;7.50;99.90
43671;DHT22;29267;50.906;7.248;2022-11-04T03:00:05;7.50;99.90
43671;DHT22;29267;50.906;7.248;2022-11-04T03:05:11;7.50;99.90
43671;DHT22;29267;50.906;7.248;2022-11-04T03:07:40;7.50;99.90
43671;DHT22;29267;50.906;7.248;2022-11-04T03:10:25;7.40;99.90
43671;DHT22;29267;50.906;7.248;2022-11-04T03:13:02;7.30;99.90
43671;DHT22;29267;50.906;7.248;2022-11-04T03:15:32;7.30;99.90
43671;DHT22;29267;50.906;7.248;2022-11-04T03:20:45;7.20;99.90
43671;DHT22;29267;50.906;7.248;2022-11-04T03:23:11;7.20;99.90
43671;DHT22;29267;50.906;7.248;2022-11-04T03:25:41;7.20;99.90
43671;DHT22;29267;50.906;7.248;2022-11-04T03:28:18;7.20;99.90
43671;DHT22;29267;50.906;7.248;2022-11-04T03:30:47;7.30;99.90
43671;DHT22;29267;50.906;7.248;2022-11-04T03:35:44;7.50;99.90
43671;DHT22;29267;50.906;7.248;2022-11-04T03:38:10;7.50;99.90
43671;DHT22;29267;50.906;7.248;2022-11-04T03:40:36;7.60;99.90
43671;DHT22;29267;50.906;7.248;2022-11-04T03:43:09;7.50;99.90
43671;DHT22;29267;50.906;7.248;2022-11-04T03:45:36;7.50;99.90
43671;DHT22;29267;50.906;7.248;2022-11-04T03:48:01;7.40;99.90
43671;DHT22;29267;50.906;7.248;2022-11-04T03:50:37;7.30;99.90
43671;DHT22;29267;50.906;7.248;2022-11-04T03:53:03;7.20;99.90
43671;DHT22;29267;50.906;7.248;2022-11-04T04:04:25;6.90;99.90
43671;DHT22;29267;50.906;7.248;2022-11-04T04:06:54;6.80;99.90
43671;DHT22;29267;50.906;7.248;2022-11-04T04:09:36;6.80;99.90
43671;DHT22;29267;50.906;7.248;2022-11-04T04:12:37;6.70;99.90
43671;DHT22;29267;50.906;7.248;2022-11-04T04:15:12;6.60;99.90
43671;DHT22;29267;50.906;7.248;2022-11-04T04:17:49;6.60;99.90
43671;DHT22;29267;50.906;7.248;2022-11-04T04:20:19;6.70;99.90
43671;DHT22;29267;50.906;7.248;2022-11-04T04:26:04;6.90;99.90
43671;DHT22;29267;50.906;7.248;2022-11-04T04:28:51;6.80;99.90
43671;DHT22;29267;50.906;7.248;2022-11-04T04:31:17;6.80;99.90
43671;DHT22;29267;50.906;7.248;2022-11-04T04:34:05;6.70;99.90
43671;DHT22;29267;50.906;7.248;2022-11-04T04:36:34;6.60;99.90
43671;DHT22;29267;50.906;7.248;2022-11-04T04:39:05;6.50;99.90
43671;DHT22;29267;50.906;7.248;2022-11-04T04:41:50;6.50;99.90
43671;DHT22;29267;50.906;7.248;2022-11-04T04:44:34;6.60;99.90
43671;DHT22;29267;50.906;7.248;2022-11-04T04:47:21;6.60;99.90
43671;DHT22;29267;50.906;7.248;2022-11-04T04:49:53;6.70;99.90
43671;DHT22;29267;50.906;7.248;2022-11-04T04:52:19;6.70;99.90
43671;DHT22;29267;50.906;7.248;2022-11-04T04:54:46;6.70;99.90
43671;DHT22;29267;50.906;7.248;2022-11-04T04:57:11;6.70;99.90
43671;DHT22;29267;50.906;7.248;2022-11-04T04:59:37;6.70;99.90
43671;DHT22;29267;50.906;7.248;2022-11-04T05:02:03;6.70;99.90
43671;DHT22;29267;50.906;7.248;2022-11-04T05:04:28;6.70;99.90
43671;DHT22;29267;50.906;7.248;2022-11-04T05:06:54;6.60;99.90
43671;DHT22;29267;50.906;7.248;2022-11-04T05:09:19;6.50;99.90
43671;DHT22;29267;50.906;7.248;2022-11-04T05:11:45;6.50;99.90
43671;DHT22;29267;50.906;7.248;2022-11-04T05:14:11;6.40;99.90
43671;DHT22;29267;50.906;7.248;2022-11-04T05:16:36;6.30;99.90
43671;DHT22;29267;50.906;7.248;2022-11-04T05:19:02;6.30;99.90
43671;DHT22;29267;50.906;7.248;2022-11-04T05:21:27;6.20;99.90
43671;DHT22;29267;50.906;7.248;2022-11-04T05:23:53;6.20;99.90
43671;DHT22;29267;50.906;7.248;2022-11-04T05:26:19;6.20;99.90
43671;DHT22;29267;50.906;7.248;2022-11-04T05:28:44;6.20;99.90
43671;DHT22;29267;50.906;7.248;2022-11-04T05:31:10;6.20;99.90
43671;DHT22;29267;50.906;7.248;2022-11-04T05:33:36;6.20;99.90
43671;DHT22;29267;50.906;7.248;2022-11-04T05:36:08;6.20;99.90
43671;DHT22;29267;50.906;7.248;2022-11-04T05:38:34;6.30;99.90
43671;DHT22;29267;50.906;7.248;2022-11-04T05:41:00;6.30;99.90
43671;DHT22;29267;50.906;7.248;2022-11-04T05:43:25;6.30;99.90
43671;DHT22;29267;50.906;7.248;2022-11-04T05:45:51;6.30;99.90
43671;DHT22;29267;50.906;7.248;2022-11-04T05:48:16;6.20;99.90
43671;DHT22;29267;50.906;7.248;2022-11-04T05:50:42;6.20;99.90
43671;DHT22;29267;50.906;7.248;2022-11-04T05:53:08;6.20;99.90
43671;DHT22;29267;50.906;7.248;2022-11-04T05:55:33;6.10;99.90
43671;DHT22;29267;50.906;7.248;2022-11-04T05:57:59;6.00;99.90
43671;DHT22;29267;50.906;7.248;2022-11-04T06:00:25;6.00;99.90
43671;DHT22;29267;50.906;7.248;2022-11-04T06:02:51;6.00;99.90
43671;DHT22;29267;50.906;7.248;2022-11-04T06:05:17;5.90;99.90
43671;DHT22;29267;50.906;7.248;2022-11-04T06:07:42;5.90;99.90
43671;DHT22;29267;50.906;7.248;2022-11-04T06:10:08;5.90;99.90
43671;DHT22;29267;50.906;7.248;2022-11-04T06:12:34;5.90;99.90
43671;DHT22;29267;50.906;7.248;2022-11-04T06:17:27;5.90;99.90
43671;DHT22;29267;50.906;7.248;2022-11-04T06:19:53;5.90;99.90
43671;DHT22;29267;50.906;7.248;2022-11-04T06:22:19;5.90;99.90
43671;DHT22;29267;50.906;7.248;2022-11-04T06:24:44;5.90;99.90
43671;DHT22;29267;50.906;7.248;2022-11-04T06:27:11;5.90;99.90
43671;DHT22;29267;50.906;7.248;2022-11-04T06:29:37;6.00;99.90
43671;DHT22;29267;50.906;7.248;2022-11-04T06:32:07;6.00;99.90
43671;DHT22;29267;50.906;7.248;2022-11-04T06:34:33;5.90;99.90
43671;DHT22;29267;50.906;7.248;2022-11-04T06:36:58;5.90;99.90
43671;DHT22;29267;50.906;7.248;2022-11-04T06:39:24;5.90;99.90
43671;DHT22;29267;50.906;7.248;2022-11-04T06:41:49;6.00;99.90
43671;DHT22;29267;50.906;7.248;2022-11-04T06:44:15;6.00;99.90
43671;DHT22;29267;50.906;7.248;2022-11-04T06:46:41;6.00;99.90
43671;DHT22;29267;50.906;7.248;2022-11-04T06:49:15;5.90;99.90
43671;DHT22;29267;50.906;7.248;2022-11-04T06:51:42;6.00;99.90
43671;DHT22;29267;50.906;7.248;2022-11-04T06:54:09;6.00;99.90
43671;DHT22;29267;50.906;7.248;2022-11-04T06:56:35;6.10;99.90
43671;DHT22;29267;50.906;7.248;2022-11-04T06:59:01;6.10;99.90
43671;DHT22;29267;50.906;7.248;2022-11-04T07:01:30;6.20;99.90
43671;DHT22;29267;50.906;7.248;2022-11-04T07:03:58;6.20;99.90
43671;DHT22;29267;50.906;7.248;2022-11-04T07:06:24;6.30;99.90
43671;DHT22;29267;50.906;7.248;2022-11-04T07:08:51;6.40;99.90
43671;DHT22;29267;50.906;7.248;2022-11-04T07:11:19;6.50;99.90
43671;DHT22;29267;50.906;7.248;2022-11-04T07:13:46;6.70;99.90
43671;DHT22;29267;50.906;7.248;2022-11-04T07:16:11;6.80;99.90
43671;DHT22;29267;50.906;7.248;2022-11-04T07:18:37;6.90;99.90
43671;DHT22;29267;50.906;7.248;2022-11-04T07:21:03;6.90;99.90
43671;DHT22;29267;50.906;7.248;2022-11-04T07:23:29;7.10;99.90
43671;DHT22;29267;50.906;7.248;2022-11-04T07:26:02;7.10;99.90
43671;DHT22;29267;50.906;7.248;2022-11-04T07:28:28;7.20;99.90
43671;DHT22;29267;50.906;7.248;2022-11-04T07:30:56;7.30;99.90
43671;DHT22;29267;50.906;7.248;2022-11-04T07:33:22;7.30;99.90
43671;DHT22;29267;50.906;7.248;2022-11-04T07:35:48;7.40;99.90
43671;DHT22;29267;50.906;7.248;2022-11-04T07:38:13;7.50;99.90
43671;DHT22;29267;50.906;7.248;2022-11-04T07:40:39;7.60;99.90
43671;DHT22;29267;50.906;7.248;2022-11-04T07:43:05;7.60;99.90
43671;DHT22;29267;50.906;7.248;2022-11-04T07:45:31;7.70;99.90
43671;DHT22;29267;50.906;7.248;2022-11-04T07:47:57;7.70;99.90
43671;DHT22;29267;50.906;7.248;2022-11-04T07:50:22;7.80;99.90
43671;DHT22;29267;50.906;7.248;2022-11-04T07:52:48;7.80;99.90
43671;DHT22;29267;50.906;7.248;2022-11-04T07:55:15;7.90;99.90
43671;DHT22;29267;50.906;7.248;2022-11-04T07:57:46;7.90;99.90
43671;DHT22;29267;50.906;7.248;2022-11-04T08:00:13;8.00;99.90
43671;DHT22;29267;50.906;7.248;2022-11-04T08:02:40;8.00;99.90
43671;DHT22;29267;50.906;7.248;2022-11-04T08:05:07;8.00;99.90
43671;DHT22;29267;50.906;7.248;2022-11-04T08:07:32;8.10;99.90
43671;DHT22;29267;50.906;7.248;2022-11-04T08:09:58;8.20;99.90
43671;DHT22;29267;50.906;7.248;2022-11-04T08:12:24;8.30;99.90
43671;DHT22;29267;50.906;7.248;2022-11-04T08:14:50;8.30;99.90
43671;DHT22;29267;50.906;7.248;2022-11-04T08:17:16;8.40;99.90
43671;DHT22;29267;50.906;7.248;2022-11-04T08:19:41;8.50;99.90
43671;DHT22;29267;50.906;7.248;2022-11-04T08:22:08;8.60;99.90
43671;DHT22;29267;50.906;7.248;2022-11-04T08:24:33;8.70;99.90
43671;DHT22;29267;50.906;7.248;2022-11-04T08:27:00;8.90;99.90
43671;DHT22;29267;50.906;7.248;2022-11-04T08:29:25;8.90;99.90
43671;DHT22;29267;50.906;7.248;2022-11-04T08:31:51;9.00;99.90
43671;DHT22;29267;50.906;7.248;2022-11-04T08:34:16;9.10;99.90
43671;DHT22;29267;50.906;7.248;2022-11-04T08:36:43;9.20;99.90
43671;DHT22;29267;50.906;7.248;2022-11-04T08:39:10;9.10;99.90
43671;DHT22;29267;50.906;7.248;2022-11-04T08:41:37;9.30;99.90
43671;DHT22;29267;50.906;7.248;2022-11-04T08:44:05;9.40;99.90
43671;DHT22;29267;50.906;7.248;2022-11-04T08:46:34;9.40;99.90
43671;DHT22;29267;50.906;7.248;2022-11-04T08:49:01;9.50;99.90
43671;DHT22;29267;50.906;7.248;2022-11-04T08:51:28;9.50;99.90
43671;DHT22;29267;50.906;7.248;2022-11-04T08:53:55;9.60;99.90
43671;DHT22;29267;50.906;7.248;2022-11-04T08:56:26;9.80;99.90
43671;DHT22;29267;50.906;7.248;2022-11-04T08:58:52;10.00;99.90
43671;DHT22;29267;50.906;7.248;2022-11-04T09:01:19;10.20;99.90
43671;DHT22;29267;50.906;7.248;2022-11-04T09:03:45;10.20;99.90
43671;DHT22;29267;50.906;7.248;2022-11-04T09:06:15;10.20;99.90
43671;DHT22;29267;50.906;7.248;2022-11-04T09:08:42;10.20;99.90
43671;DHT22;29267;50.906;7.248;2022-11-04T09:11:10;10.40;99.90
43671;DHT22;29267;50.906;7.248;2022-11-04T09:13:37;10.70;99.90
43671;DHT22;29267;50.906;7.248;2022-11-04T09:16:04;10.60;99.90
43671;DHT22;29267;50.906;7.248;2022-11-04T09:18:31;10.60;99.90
43671;DHT22;29267;50.906;7.248;2022-11-04T09:21:03;10.70;99.90
43671;DHT22;29267;50.906;7.248;2022-11-04T09:23:30;11.00;99.90
43671;DHT22;29267;50.906;7.248;2022-11-04T09:25:56;11.20;99.90
43671;DHT22;29267;50.906;7.248;2022-11-04T09:28:23;11.50;99.90
43671;DHT22;29267;50.906;7.248;2022-11-04T09:30:49;11.80;99.90
43671;DHT22;29267;50.906;7.248;2022-11-04T09:33:15;12.10;99.90
43671;DHT22;29267;50.906;7.248;2022-11-04T09:35:41;12.00;99.90
43671;DHT22;29267;50.906;7.248;2022-11-04T09:38:06;12.20;99.90
43671;DHT22;29267;50.906;7.248;2022-11-04T09:40:34;12.40;99.90
43671;DHT22;29267;50.906;7.248;2022-11-04T09:45:38;12.60;99.90
43671;DHT22;29267;50.906;7.248;2022-11-04T09:50:51;12.40;99.90
43671;DHT22;29267;50.906;7.248;2022-11-04T09:53:29;12.20;99.90
43671;DHT22;29267;50.906;7.248;2022-11-04T09:56:00;12.00;99.90
43671;DHT22;29267;50.906;7.248;2022-11-04T09:58:31;12.00;99.90
43671;DHT22;29267;50.906;7.248;2022-11-04T10:06:43;12.50;99.90
43671;DHT22;29267;50.906;7.248;2022-11-04T10:14:45;12.70;99.90
43671;DHT22;29267;50.906;7.248;2022-11-04T10:22:38;13.00;99.90
43671;DHT22;29267;50.906;7.248;2022-11-04T10:25:12;13.20;99.90
43671;DHT22;29267;50.906;7.248;2022-11-04T10:27:41;13.40;99.90
43671;DHT22;29267;50.906;7.248;2022-11-04T10:30:22;13.30;99.90
43671;DHT22;29267;50.906;7.248;2022-11-04T10:36:09;13.50;99.90
43671;DHT22;29267;50.906;7.248;2022-11-04T10:38:52;13.40;99.90
43671;DHT22;29267;50.906;7.248;2022-11-04T10:41:33;13.40;99.90
43671;DHT22;29267;50.906;7.248;2022-11-04T10:44:17;13.50;99.90
43671;DHT22;29267;50.906;7.248;2022-11-04T10:52:02;13.80;99.90
43671;DHT22;29267;50.906;7.248;2022-11-04T10:54:29;13.90;99.90
43671;DHT22;29267;50.906;7.248;2022-11-04T10:56:58;13.80;99.90
43671;DHT22;29267;50.906;7.248;2022-11-04T10:59:27;13.80;99.90
43671;DHT22;29267;50.906;7.248;2022-11-04T11:01:55;13.60;99.90
43671;DHT22;29267;50.906;7.248;2022-11-04T11:04:39;13.60;99.90
43671;DHT22;29267;50.906;7.248;2022-11-04T11:07:08;13.60;99.90
43671;DHT22;29267;50.906;7.248;2022-11-04T11:12:21;13.50;99.90
43671;DHT22;29267;50.906;7.248;2022-11-04T11:14:53;13.40;99.90
43671;DHT22;29267;50.906;7.248;2022-11-04T11:17:39;13.60;99.90
43671;DHT22;29267;50.906;7.248;2022-11-04T11:22:40;13.90;99.90
43671;DHT22;29267;50.906;7.248;2022-11-04T11:25:26;13.80;99.90
43671;DHT22;29267;50.906;7.248;2022-11-04T11:30:32;13.70;99.90
43671;DHT22;29267;50.906;7.248;2022-11-04T11:33:05;13.60;99.90
43671;DHT22;29267;50.906;7.248;2022-11-04T11:35:40;13.60;99.90
43671;DHT22;29267;50.906;7.248;2022-11-04T11:38:17;13.60;99.90
43671;DHT22;29267;50.906;7.248;2022-11-04T11:40:45;13.70;99.90
43671;DHT22;29267;50.906;7.248;2022-11-04T11:43:22;13.80;99.90
43671;DHT22;29267;50.906;7.248;2022-11-04T11:45:49;13.90;99.90
43671;DHT22;29267;50.906;7.248;2022-11-04T11:48:50;13.70;99.90
43671;DHT22;29267;50.906;7.248;2022-11-04T11:51:22;13.60;99.90
43671;DHT22;29267;50.906;7.248;2022-11-04T11:56:35;13.50;99.90
43671;DHT22;29267;50.906;7.248;2022-11-04T11:59:18;13.50;99.90
43671;DHT22;29267;50.906;7.248;2022-11-04T12:01:49;13.60;99.90
43671;DHT22;29267;50.906;7.248;2022-11-04T12:04:16;13.60;99.90
43671;DHT22;29267;50.906;7.248;2022-11-04T12:20:38;13.70;99.90
43671;DHT22;29267;50.906;7.248;2022-11-04T12:25:59;13.90;99.90
43671;DHT22;29267;50.906;7.248;2022-11-04T12:39:41;13.00;99.90
43671;DHT22;29267;50.906;7.248;2022-11-04T12:45:17;13.00;99.90
43671;DHT22;29267;50.906;7.248;2022-11-04T12:47:46;12.90;99.90
43671;DHT22;29267;50.906;7.248;2022-11-04T12:55:53;12.90;99.90
43671;DHT22;29267;50.906;7.248;2022-11-04T13:01:08;13.00;99.90
43671;DHT22;29267;50.906;7.248;2022-11-04T13:06:15;13.20;99.90
43671;DHT22;29267;50.906;7.248;2022-11-04T13:09:08;13.20;99.90
43671;DHT22;29267;50.906;7.248;2022-11-04T13:11:59;13.30;99.90
43671;DHT22;29267;50.906;7.248;2022-11-04T13:14:27;13.20;99.90
43671;DHT22;29267;50.906;7.248;2022-11-04T13:17:05;13.20;99.90
43671;DHT22;29267;50.906;7.248;2022-11-04T13:19:48;13.20;99.90
43671;DHT22;29267;50.906;7.248;2022-11-04T13:22:37;13.30;99.90
43671;DHT22;29267;50.906;7.248;2022-11-04T13:25:08;13.20;99.90
43671;DHT22;29267;50.906;7.248;2022-11-04T13:27:40;13.20;99.90
43671;DHT22;29267;50.906;7.248;2022-11-04T13:35:48;13.20;99.90
43671;DHT22;29267;50.906;7.248;2022-11-04T13:38:57;13.10;99.90
43671;DHT22;29267;50.906;7.248;2022-11-04T13:44:33;13.10;99.90
43671;DHT22;29267;50.906;7.248;2022-11-04T13:47:10;13.00;99.90
43671;DHT22;29267;50.906;7.248;2022-11-04T13:49:37;13.00;99.90
43671;DHT22;29267;50.906;7.248;2022-11-04T13:52:09;12.80;99.90
43671;DHT22;29267;50.906;7.248;2022-11-04T13:54:57;12.70;99.90
43671;DHT22;29267;50.906;7.248;2022-11-04T13:57:26;12.70;99.90
43671;DHT22;29267;50.906;7.248;2022-11-04T14:00:22;12.50;99.90
43671;DHT22;29267;50.906;7.248;2022-11-04T14:02:56;12.50;99.90
43671;DHT22;29267;50.906;7.248;2022-11-04T14:10:43;12.30;99.90
43671;DHT22;29267;50.906;7.248;2022-11-04T14:13:40;12.40;99.90
43671;DHT22;29267;50.906;7.248;2022-11-04T14:18:46;12.30;99.90
43671;DHT22;29267;50.906;7.248;2022-11-04T14:21:14;12.20;99.90
43671;DHT22;29267;50.906;7.248;2022-11-04T14:23:42;12.20;99.90
43671;DHT22;29267;50.906;7.248;2022-11-04T14:26:14;12.10;99.90
43671;DHT22;29267;50.906;7.248;2022-11-04T14:28:44;12.10;99.90
43671;DHT22;29267;50.906;7.248;2022-11-04T14:31:13;12.10;99.90
43671;DHT22;29267;50.906;7.248;2022-11-04T14:33:55;12.10;99.90
43671;DHT22;29267;50.906;7.248;2022-11-04T14:46:42;11.60;99.90
43671;DHT22;29267;50.906;7.248;2022-11-04T14:51:54;11.50;99.90
43671;DHT22;29267;50.906;7.248;2022-11-04T14:54:23;11.40;99.90
43671;DHT22;29267;50.906;7.248;2022-11-04T14:56:50;11.50;99.90
43671;DHT22;29267;50.906;7.248;2022-11-04T14:59:23;11.40;99.90
43671;DHT22;29267;50.906;7.248;2022-11-04T15:01:52;11.30;99.90
43671;DHT22;29267;50.906;7.248;2022-11-04T15:06:56;11.20;99.90
43671;DHT22;29267;50.906;7.248;2022-11-04T15:09:28;11.10;99.90
43671;DHT22;29267;50.906;7.248;2022-11-04T15:12:13;11.10;99.90
43671;DHT22;29267;50.906;7.248;2022-11-04T15:15:00;11.10;99.90
43671;DHT22;29267;50.906;7.248;2022-11-04T15:17:31;11.10;99.90
43671;DHT22;29267;50.906;7.248;2022-11-04T15:19:59;11.00;99.90
43671;DHT22;29267;50.906;7.248;2022-11-04T15:22:26;11.00;99.90
43671;DHT22;29267;50.906;7.248;2022-11-04T15:24:54;11.00;99.90
43671;DHT22;29267;50.906;7.248;2022-11-04T15:27:27;11.00;99.90
43671;DHT22;29267;50.906;7.248;2022-11-04T15:29:59;11.00;99.90
43671;DHT22;29267;50.906;7.248;2022-11-04T15:32:25;11.00;99.90
43671;DHT22;29267;50.906;7.248;2022-11-04T15:34:52;10.90;99.90
43671;DHT22;29267;50.906;7.248;2022-11-04T15:37:18;10.90;99.90
43671;DHT22;29267;50.906;7.248;2022-11-04T15:39:47;10.80;99.90
43671;DHT22;29267;50.906;7.248;2022-11-04T15:42:19;10.80;99.90
43671;DHT22;29267;50.906;7.248;2022-11-04T15:51:17;10.60;99.90
43671;DHT22;29267;50.906;7.248;2022-11-04T15:54:05;10.60;99.90
43671;DHT22;29267;50.906;7.248;2022-11-04T15:56:49;10.60;99.90
43671;DHT22;29267;50.906;7.248;2022-11-04T15:59:28;10.60;99.90
43671;DHT22;29267;50.906;7.248;2022-11-04T16:01:56;10.50;99.90
43671;DHT22;29267;50.906;7.248;2022-11-04T16:04:27;10.50;99.90
43671;DHT22;29267;50.906;7.248;2022-11-04T16:10:01;10.40;99.90
43671;DHT22;29267;50.906;7.248;2022-11-04T16:12:33;10.40;99.90
43671;DHT22;29267;50.906;7.248;2022-11-04T16:14:59;10.40;99.90
43671;DHT22;29267;50.906;7.248;2022-11-04T16:17:26;10.30;99.90
43671;DHT22;29267;50.906;7.248;2022-11-04T16:19:55;10.30;99.90
43671;DHT22;29267;50.906;7.248;2022-11-04T16:22:42;10.30;99.90
43671;DHT22;29267;50.906;7.248;2022-11-04T16:25:19;10.30;99.90
43671;DHT22;29267;50.906;7.248;2022-11-04T16:27:46;10.30;99.90
43671;DHT22;29267;50.906;7.248;2022-11-04T16:30:17;10.30;99.90
43671;DHT22;29267;50.906;7.248;2022-11-04T16:32:45;10.30;99.90
43671;DHT22;29267;50.906;7.248;2022-11-04T16:35:23;10.30;99.90
43671;DHT22;29267;50.906;7.248;2022-11-04T16:37:49;10.30;99.90
43671;DHT22;29267;50.906;7.248;2022-11-04T16:40:16;10.30;99.90
43671;DHT22;29267;50.906;7.248;2022-11-04T16:42:43;10.30;99.90
43671;DHT22;29267;50.906;7.248;2022-11-04T16:45:22;10.30;99.90
43671;DHT22;29267;50.906;7.248;2022-11-04T16:47:49;10.20;99.90
43671;DHT22;29267;50.906;7.248;2022-11-04T16:50:15;10.30;99.90
43671;DHT22;29267;50.906;7.248;2022-11-04T16:52:41;10.20;99.90
43671;DHT22;29267;50.906;7.248;2022-11-04T16:55:08;10.20;99.90
43671;DHT22;29267;50.906;7.248;2022-11-04T16:57:33;10.20;99.90
43671;DHT22;29267;50.906;7.248;2022-11-04T16:59:59;10.20;99.90
43671;DHT22;29267;50.906;7.248;2022-11-04T17:04:51;10.10;99.90
43671;DHT22;29267;50.906;7.248;2022-11-04T17:07:17;10.10;99.90
43671;DHT22;29267;50.906;7.248;2022-11-04T17:09:42;10.00;99.90
43671;DHT22;29267;50.906;7.248;2022-11-04T17:12:08;9.90;99.90
43671;DHT22;29267;50.906;7.248;2022-11-04T17:14:34;9.80;99.90
43671;DHT22;29267;50.906;7.248;2022-11-04T17:17:00;9.70;99.90
43671;DHT22;29267;50.906;7.248;2022-11-04T17:19:26;9.60;99.90
43671;DHT22;29267;50.906;7.248;2022-11-04T17:21:52;9.50;99.90
43671;DHT22;29267;50.906;7.248;2022-11-04T17:24:18;9.50;99.90
43671;DHT22;29267;50.906;7.248;2022-11-04T17:26:44;9.40;99.90
43671;DHT22;29267;50.906;7.248;2022-11-04T17:29:09;9.30;99.90
43671;DHT22;29267;50.906;7.248;2022-11-04T17:31:35;9.30;99.90
43671;DHT22;29267;50.906;7.248;2022-11-04T17:34:00;9.30;99.90
43671;DHT22;29267;50.906;7.248;2022-11-04T17:36:26;9.30;99.90
43671;DHT22;29267;50.906;7.248;2022-11-04T17:38:52;9.30;99.90
43671;DHT22;29267;50.906;7.248;2022-11-04T17:41:17;9.40;99.90
43671;DHT22;29267;50.906;7.248;2022-11-04T17:44:02;9.50;99.90
43671;DHT22;29267;50.906;7.248;2022-11-04T17:46:30;9.50;99.90
43671;DHT22;29267;50.906;7.248;2022-11-04T17:49:18;9.60;99.90
43671;DHT22;29267;50.906;7.248;2022-11-04T17:51:47;9.60;99.90
43671;DHT22;29267;50.906;7.248;2022-11-04T17:54:13;9.70;99.90
43671;DHT22;29267;50.906;7.248;2022-11-04T17:56:40;9.70;99.90
43671;DHT22;29267;50.906;7.248;2022-11-04T17:59:06;9.70;99.90
43671;DHT22;29267;50.906;7.248;2022-11-04T18:01:34;9.70;99.90
43671;DHT22;29267;50.906;7.248;2022-11-04T18:04:00;9.70;99.90
43671;DHT22;29267;50.906;7.248;2022-11-04T18:06:29;9.80;99.90
43671;DHT22;29267;50.906;7.248;2022-11-04T18:08:56;9.80;99.90
43671;DHT22;29267;50.906;7.248;2022-11-04T18:11:27;9.80;99.90
43671;DHT22;29267;50.906;7.248;2022-11-04T18:14:11;9.80;99.90
43671;DHT22;29267;50.906;7.248;2022-11-04T18:16:41;9.80;99.90
43671;DHT22;29267;50.906;7.248;2022-11-04T18:19:07;9.80;99.90
43671;DHT22;29267;50.906;7.248;2022-11-04T18:21:32;9.80;99.90
43671;DHT22;29267;50.906;7.248;2022-11-04T18:23:58;9.80;99.90
43671;DHT22;29267;50.906;7.248;2022-11-04T18:26:24;9.70;99.90
43671;DHT22;29267;50.906;7.248;2022-11-04T18:28:49;9.60;99.90
43671;DHT22;29267;50.906;7.248;2022-11-04T18:31:26;9.60;99.90
43671;DHT22;29267;50.906;7.248;2022-11-04T18:33:52;9.50;99.90
43671;DHT22;29267;50.906;7.248;2022-11-04T18:36:18;9.40;99.90
43671;DHT22;29267;50.906;7.248;2022-11-04T18:38:44;9.30;99.90
43671;DHT22;29267;50.906;7.248;2022-11-04T18:41:09;9.30;99.90
43671;DHT22;29267;50.906;7.248;2022-11-04T18:43:35;9.10;99.90
43671;DHT22;29267;50.906;7.248;2022-11-04T18:46:12;9.00;99.90
43671;DHT22;29267;50.906;7.248;2022-11-04T18:48:38;8.90;99.90
43671;DHT22;29267;50.906;7.248;2022-11-04T18:51:06;8.90;99.90
43671;DHT22;29267;50.906;7.248;2022-11-04T18:53:33;8.80;99.90